Time;durP1;ratioP1;P1;durP2;ratioP2;P2;SDS_P1;SDS_P2;PMS_P1;PMS_P2;Temp;Humidity;BMP_temperature;BMP_pressure;BME280_temperature;BME280_humidity;BME280_pressure;Samples;Min_cycle;Max_cycle;Signal;HPM_P1;HPM_P2
2023/05/30 00:01:19;;;;;;;3.93;3.53;;;14.80;99.90;;;;;;4996184;28;20216;-77
2023/05/30 00:03:46;;;;;;;4.40;3.43;;;14.80;99.90;;;;;;4997005;28;20255;-77
2023/05/30 00:06:13;;;;;;;7.83;4.03;;;14.70;99.90;;;;;;5000119;28;20201;-77
2023/05/30 00:08:40;;;;;;;7.00;4.20;;;14.60;99.90;;;;;;5002305;28;20200;-77
2023/05/30 00:11:07;;;;;;;4.63;4.07;;;14.60;99.90;;;;;;4993625;28;20205;-78
2023/05/30 00:13:35;;;;;;;5.10;3.63;;;14.50;99.90;;;;;;4995331;28;20239;-78
2023/05/30 00:16:03;;;;;;;4.47;3.63;;;14.50;99.90;;;;;;4997094;28;20198;-77
2023/05/30 00:18:34;;;;;;;4.57;3.53;;;14.40;99.90;;;;;;4995218;28;20226;-77
2023/05/30 00:21:02;;;;;;;4.37;3.50;;;14.40;99.90;;;;;;5002245;28;20248;-77
2023/05/30 00:23:29;;;;;;;5.37;4.17;;;14.40;99.90;;;;;;5001607;28;20401;-77
2023/05/30 00:25:57;;;;;;;4.63;3.43;;;14.40;99.90;;;;;;5000529;28;20295;-77
2023/05/30 00:28:24;;;;;;;3.97;3.50;;;14.40;99.90;;;;;;5000846;28;20222;-78
2023/05/30 00:30:54;;;;;;;5.23;3.50;;;14.40;99.90;;;;;;5000374;28;20241;-78
2023/05/30 00:33:21;;;;;;;3.67;3.17;;;14.30;99.90;;;;;;4997892;28;20302;-78
2023/05/30 00:35:48;;;;;;;4.23;3.73;;;14.30;99.90;;;;;;4999944;28;20206;-77
2023/05/30 00:38:15;;;;;;;7.03;4.43;;;14.30;99.90;;;;;;5001393;28;20202;-78
2023/05/30 00:40:42;;;;;;;5.50;3.60;;;14.30;99.90;;;;;;5001553;28;20248;-77
2023/05/30 00:43:10;;;;;;;5.17;3.80;;;14.20;99.90;;;;;;5000234;28;20220;-77
2023/05/30 00:45:37;;;;;;;6.90;3.83;;;14.20;99.90;;;;;;4993194;28;20217;-78
2023/05/30 00:48:06;;;;;;;5.50;4.00;;;14.20;99.90;;;;;;5001660;28;20227;-77
2023/05/30 00:50:34;;;;;;;5.23;3.83;;;14.20;99.90;;;;;;4999759;28;20227;-78
2023/05/30 00:53:01;;;;;;;7.00;4.23;;;14.20;99.90;;;;;;4999752;28;20224;-77
2023/05/30 00:55:28;;;;;;;6.00;3.33;;;14.20;99.90;;;;;;4999326;28;20239;-77
2023/05/30 00:57:56;;;;;;;5.20;4.00;;;14.10;99.90;;;;;;4993947;28;20207;-78
2023/05/30 01:00:26;;;;;;;6.77;3.97;;;14.10;99.90;;;;;;5001383;28;20676;-77
2023/05/30 01:02:57;;;;;;;5.03;3.90;;;14.10;99.90;;;;;;5002815;28;20219;-77
2023/05/30 01:05:25;;;;;;;6.37;4.23;;;14.00;99.90;;;;;;4999684;28;20197;-77
2023/05/30 01:07:52;;;;;;;4.53;3.33;;;14.00;99.90;;;;;;5001190;28;20670;-77
2023/05/30 01:10:19;;;;;;;4.47;3.80;;;13.90;99.90;;;;;;4994219;28;20199;-77
2023/05/30 01:12:59;;;;;;;5.00;3.90;;;13.90;99.90;;;;;;5001292;28;20694;-77
2023/05/30 01:15:31;;;;;;;7.40;4.17;;;13.90;99.90;;;;;;4999404;28;20638;-77
2023/05/30 01:18:04;;;;;;;6.57;5.30;;;13.80;99.90;;;;;;4992717;28;20212;-78
2023/05/30 01:20:38;;;;;;;7.37;6.20;;;13.80;99.90;;;;;;4991976;28;20206;-78
2023/05/30 01:23:37;;;;;;;5.53;4.40;;;13.80;99.90;;;;;;4998239;28;20243;-78
2023/05/30 01:26:18;;;;;;;6.50;5.40;;;13.80;99.90;;;;;;4994590;28;20305;-77
2023/05/30 01:28:49;;;;;;;6.50;5.40;;;13.80;99.90;;;;;;4988765;28;20203;-77
2023/05/30 01:31:17;;;;;;;5.87;4.60;;;13.80;99.90;;;;;;4990319;28;20211;-78
2023/05/30 01:33:45;;;;;;;5.10;4.40;;;13.80;99.90;;;;;;4999294;28;20228;-77
2023/05/30 01:36:12;;;;;;;7.27;4.97;;;13.80;99.90;;;;;;5000667;28;20740;-77
2023/05/30 01:38:39;;;;;;;10.23;5.20;;;13.70;99.90;;;;;;4999776;28;20623;-78
2023/05/30 01:41:13;;;;;;;6.23;5.13;;;13.60;99.90;;;;;;4999739;28;20296;-77
2023/05/30 01:43:46;;;;;;;7.30;5.40;;;13.60;99.90;;;;;;4998847;28;20272;-77
2023/05/30 01:46:26;;;;;;;6.43;5.83;;;13.50;99.90;;;;;;4997654;28;20205;-78
2023/05/30 01:49:00;;;;;;;6.80;6.10;;;13.50;99.90;;;;;;4993494;28;20664;-78
2023/05/30 01:51:31;;;;;;;8.23;6.43;;;13.40;99.90;;;;;;4999831;28;20231;-77
2023/05/30 01:54:00;;;;;;;6.17;3.97;;;13.40;99.90;;;;;;4997976;28;20225;-77
2023/05/30 01:56:28;;;;;;;6.23;4.40;;;13.40;99.90;;;;;;4999349;28;20253;-77
2023/05/30 01:58:56;;;;;;;9.60;7.57;;;13.40;99.90;;;;;;4993754;28;20216;-77
2023/05/30 02:01:28;;;;;;;7.70;7.00;;;13.40;99.90;;;;;;4993734;28;20300;-77
2023/05/30 02:03:55;;;;;;;7.40;6.70;;;13.40;99.90;;;;;;4993186;28;20225;-77
2023/05/30 02:06:23;;;;;;;7.63;6.90;;;13.40;99.90;;;;;;4997546;28;20809;-77
2023/05/30 02:08:50;;;;;;;5.73;4.40;;;13.30;99.90;;;;;;4998544;28;20202;-78
2023/05/30 02:11:18;;;;;;;5.00;3.77;;;13.30;99.90;;;;;;5002870;28;20678;-78
2023/05/30 02:13:46;;;;;;;6.70;4.20;;;13.30;99.90;;;;;;5000023;28;20221;-77
2023/05/30 02:16:13;;;;;;;5.37;4.27;;;13.30;99.90;;;;;;4997531;28;20233;-78
2023/05/30 02:18:41;;;;;;;5.33;3.67;;;13.30;99.90;;;;;;4994170;28;20198;-77
2023/05/30 02:21:08;;;;;;;4.70;3.70;;;13.40;99.90;;;;;;5008908;28;20201;-77
2023/05/30 02:23:36;;;;;;;5.50;4.00;;;13.40;99.90;;;;;;4998063;28;20238;-78
2023/05/30 02:26:05;;;;;;;9.73;7.47;;;13.30;99.90;;;;;;4996135;28;20193;-77
2023/05/30 02:28:32;;;;;;;7.63;6.70;;;13.30;99.90;;;;;;4998190;28;20198;-78
2023/05/30 02:30:59;;;;;;;7.97;7.27;;;13.20;99.90;;;;;;4997045;28;20205;-77
2023/05/30 02:33:26;;;;;;;7.83;7.07;;;13.10;99.90;;;;;;4991038;28;20309;-78
2023/05/30 02:35:54;;;;;;;8.20;7.50;;;13.10;99.90;;;;;;4991824;28;20212;-76
2023/05/30 02:38:21;;;;;;;7.40;6.70;;;13.00;99.90;;;;;;4996579;28;20208;-77
2023/05/30 02:40:48;;;;;;;7.73;5.80;;;12.90;99.90;;;;;;4997588;28;20289;-77
2023/05/30 02:43:15;;;;;;;4.70;4.10;;;12.80;99.90;;;;;;4995215;28;20650;-77
2023/05/30 02:45:42;;;;;;;5.53;4.50;;;12.80;99.90;;;;;;4992990;28;20203;-77
2023/05/30 02:48:09;;;;;;;8.37;7.10;;;12.70;99.90;;;;;;4997615;28;20259;-79
2023/05/30 02:50:37;;;;;;;6.43;5.23;;;12.70;99.90;;;;;;4994178;28;20212;-80
2023/05/30 02:53:09;;;;;;;8.07;5.17;;;12.70;99.90;;;;;;4993461;28;20217;-81
2023/05/30 02:55:36;;;;;;;7.40;6.17;;;12.60;99.90;;;;;;4992574;28;20248;-78
2023/05/30 02:58:21;;;;;;;8.47;7.43;;;12.60;99.90;;;;;;4997585;28;20304;-77
2023/05/30 03:00:57;;;;;;;8.40;5.30;;;12.50;99.90;;;;;;5007901;28;20247;-78
2023/05/30 03:03:25;;;;;;;8.10;5.10;;;12.50;99.90;;;;;;5005799;28;20221;-78
2023/05/30 03:05:57;;;;;;;7.43;4.40;;;12.50;99.90;;;;;;5002887;28;20228;-78
2023/05/30 03:08:42;;;;;;;6.63;4.67;;;12.40;99.90;;;;;;5005201;28;20767;-78
2023/05/30 03:11:10;;;;;;;8.30;7.50;;;12.40;99.90;;;;;;5008637;28;20212;-78
2023/05/30 03:13:36;;;;;;;8.07;7.27;;;12.40;99.90;;;;;;4988639;28;20657;-78
2023/05/30 03:16:04;;;;;;;6.87;5.33;;;12.30;99.90;;;;;;4995507;28;20740;-78
2023/05/30 03:18:31;;;;;;;7.17;6.43;;;12.30;99.90;;;;;;4993179;28;20193;-81
2023/05/30 03:20:58;;;;;;;5.87;5.27;;;12.30;99.90;;;;;;4986463;28;20201;-81
2023/05/30 03:23:25;;;;;;;9.00;5.40;;;12.30;99.90;;;;;;4994651;28;20715;-81
2023/05/30 03:25:53;;;;;;;6.97;5.00;;;12.30;99.90;;;;;;4988914;28;20630;-80
2023/05/30 03:28:19;;;;;;;6.33;4.77;;;12.20;99.90;;;;;;4993166;28;20208;-81
2023/05/30 03:31:19;;;;;;;6.40;5.23;;;12.20;99.90;;;;;;4979362;28;20292;-81
2023/05/30 03:33:46;;;;;;;8.67;7.33;;;12.20;99.90;;;;;;4992382;28;20220;-81
2023/05/30 03:36:13;;;;;;;7.57;6.87;;;12.20;99.90;;;;;;4991504;28;20578;-81
2023/05/30 03:38:40;;;;;;;9.37;6.73;;;12.20;99.90;;;;;;4995668;28;20220;-77
2023/05/30 03:41:09;;;;;;;8.20;7.17;;;12.20;99.90;;;;;;4996812;28;20212;-78
2023/05/30 03:43:36;;;;;;;7.43;6.23;;;12.20;99.90;;;;;;4997868;28;20255;-77
2023/05/30 03:46:02;;;;;;;7.33;6.60;;;12.20;99.90;;;;;;4997808;28;20197;-77
2023/05/30 03:48:30;;;;;;;9.37;6.90;;;12.30;99.90;;;;;;4988947;28;20228;-77
2023/05/30 03:50:57;;;;;;;7.10;6.37;;;12.30;99.90;;;;;;4989652;28;20219;-78
2023/05/30 03:53:23;;;;;;;6.80;6.17;;;12.30;99.90;;;;;;4993906;28;20221;-77
2023/05/30 03:55:50;;;;;;;7.77;6.00;;;12.30;99.90;;;;;;4997353;28;20193;-78
2023/05/30 03:58:19;;;;;;;7.70;5.30;;;12.40;99.90;;;;;;4995037;28;20296;-77
2023/05/30 04:00:46;;;;;;;6.70;5.90;;;12.40;99.90;;;;;;5003035;28;20201;-77
2023/05/30 04:03:13;;;;;;;6.53;5.50;;;12.50;99.90;;;;;;4994833;28;20284;-77
2023/05/30 04:05:41;;;;;;;8.67;5.50;;;12.50;99.90;;;;;;4994341;28;20228;-77
2023/05/30 04:08:08;;;;;;;7.80;5.07;;;12.50;99.90;;;;;;4995191;28;20582;-78
2023/05/30 04:10:35;;;;;;;6.93;4.60;;;12.60;99.90;;;;;;5000586;28;20197;-78
2023/05/30 04:13:02;;;;;;;7.00;5.50;;;12.60;99.90;;;;;;5000437;28;20764;-77
2023/05/30 04:15:30;;;;;;;6.90;5.50;;;12.60;99.90;;;;;;4993373;28;20213;-77
2023/05/30 04:17:57;;;;;;;9.00;5.53;;;12.60;99.90;;;;;;5000399;28;20224;-77
2023/05/30 04:20:25;;;;;;;7.23;5.90;;;12.70;99.90;;;;;;5000203;28;20201;-78
2023/05/30 04:22:52;;;;;;;8.80;5.30;;;12.70;99.90;;;;;;5000247;28;20227;-78
2023/05/30 04:25:19;;;;;;;5.40;4.30;;;12.90;99.90;;;;;;5000501;28;20206;-77
2023/05/30 04:27:48;;;;;;;6.77;4.90;;;13.00;99.90;;;;;;5004579;28;20201;-77
2023/05/30 04:30:15;;;;;;;6.93;4.43;;;13.10;99.90;;;;;;4995236;28;20746;-77
2023/05/30 04:32:45;;;;;;;7.90;4.97;;;13.10;99.90;;;;;;4993730;28;20308;-78
2023/05/30 04:35:13;;;;;;;8.30;5.00;;;13.20;99.90;;;;;;4993345;28;20201;-78
2023/05/30 04:37:43;;;;;;;7.47;4.60;;;13.30;99.90;;;;;;4995393;28;20198;-77
2023/05/30 04:40:12;;;;;;;7.77;4.77;;;13.40;99.90;;;;;;4994601;28;20206;-77
2023/05/30 04:42:39;;;;;;;8.07;5.67;;;13.40;99.90;;;;;;4999109;28;20222;-78
2023/05/30 04:45:08;;;;;;;9.53;5.30;;;13.50;99.90;;;;;;4999497;28;20237;-77
2023/05/30 04:47:36;;;;;;;8.57;5.17;;;13.60;99.90;;;;;;4998148;28;20201;-78
2023/05/30 04:50:05;;;;;;;9.87;5.30;;;13.60;99.90;;;;;;4999455;28;20685;-78
2023/05/30 04:52:31;;;;;;;6.93;4.97;;;13.70;99.90;;;;;;4991680;28;20305;-78
2023/05/30 04:54:58;;;;;;;6.20;5.60;;;13.80;99.90;;;;;;5004575;28;20235;-77
2023/05/30 04:57:25;;;;;;;7.33;4.50;;;13.90;99.90;;;;;;4998699;28;20198;-78
2023/05/30 04:59:53;;;;;;;5.47;4.63;;;14.00;99.90;;;;;;5000484;28;20194;-77
2023/05/30 05:02:20;;;;;;;7.40;4.80;;;14.00;99.90;;;;;;4999614;28;20217;-78
2023/05/30 05:04:47;;;;;;;7.73;4.90;;;14.10;99.90;;;;;;4994163;28;20195;-77
2023/05/30 05:07:16;;;;;;;8.13;5.23;;;14.20;99.90;;;;;;4992707;28;20223;-77
2023/05/30 05:09:43;;;;;;;9.30;5.43;;;14.40;99.90;;;;;;4993109;28;20663;-78
2023/05/30 05:12:11;;;;;;;7.47;5.10;;;14.50;99.90;;;;;;4998732;28;20203;-78
2023/05/30 05:14:38;;;;;;;6.70;4.70;;;14.70;99.90;;;;;;4993910;28;20215;-77
2023/05/30 05:17:06;;;;;;;6.97;5.03;;;14.90;99.90;;;;;;4992148;28;20199;-78
2023/05/30 05:19:34;;;;;;;7.20;5.20;;;15.00;99.90;;;;;;5000240;28;20227;-78
2023/05/30 05:22:02;;;;;;;7.50;4.77;;;15.10;99.90;;;;;;4999714;28;20209;-79
2023/05/30 05:24:30;;;;;;;6.43;5.10;;;15.30;99.90;;;;;;5004213;28;20246;-78
2023/05/30 05:26:57;;;;;;;6.50;4.93;;;15.50;99.90;;;;;;4998939;28;20207;-78
2023/05/30 05:29:24;;;;;;;8.83;5.00;;;15.70;99.90;;;;;;4999798;28;20235;-78
2023/05/30 05:31:51;;;;;;;7.33;4.50;;;15.80;99.90;;;;;;4999398;28;20667;-79
2023/05/30 05:34:18;;;;;;;7.00;4.30;;;15.90;99.90;;;;;;4998210;28;20256;-78
2023/05/30 05:36:45;;;;;;;5.07;4.57;;;16.00;99.90;;;;;;5001154;28;20193;-78
2023/05/30 05:39:12;;;;;;;5.97;4.60;;;16.20;99.90;;;;;;5001646;28;20209;-79
2023/05/30 05:41:40;;;;;;;8.53;4.87;;;16.30;99.90;;;;;;4997410;28;20203;-76
2023/05/30 05:44:06;;;;;;;8.17;4.47;;;16.50;99.90;;;;;;4998539;28;20670;-78
2023/05/30 05:46:33;;;;;;;6.03;4.27;;;16.70;99.90;;;;;;4993588;28;20630;-79
2023/05/30 05:49:01;;;;;;;6.07;4.33;;;16.90;99.90;;;;;;4994128;28;20206;-76
2023/05/30 05:51:28;;;;;;;7.03;4.80;;;17.10;99.90;;;;;;4994955;28;20201;-76
2023/05/30 05:53:54;;;;;;;6.40;4.60;;;17.30;99.90;;;;;;4997656;28;20226;-76
2023/05/30 05:56:22;;;;;;;9.30;3.83;;;17.50;99.90;;;;;;4992789;28;20277;-75
2023/05/30 05:58:50;;;;;;;5.47;4.47;;;17.60;99.90;;;;;;4993398;28;20664;-80
2023/05/30 06:01:17;;;;;;;6.43;4.70;;;17.70;99.90;;;;;;4989226;28;20254;-79
2023/05/30 06:03:43;;;;;;;6.03;4.20;;;17.90;99.90;;;;;;4994907;28;20720;-81
2023/05/30 06:06:11;;;;;;;7.13;4.77;;;18.10;99.90;;;;;;4993227;28;20622;-81
2023/05/30 06:08:38;;;;;;;7.67;4.33;;;18.30;99.90;;;;;;4997716;28;20191;-80
2023/05/30 06:11:05;;;;;;;6.23;4.60;;;18.40;99.90;;;;;;4996667;28;20291;-78
2023/05/30 06:13:32;;;;;;;6.07;4.33;;;18.60;99.90;;;;;;4994403;28;20219;-80
2023/05/30 06:16:00;;;;;;;7.90;4.60;;;18.50;99.90;;;;;;4989895;28;20243;-80
2023/05/30 06:18:26;;;;;;;7.77;4.33;;;18.60;99.90;;;;;;4993599;28;20205;-80
2023/05/30 06:20:53;;;;;;;8.67;4.53;;;18.70;99.90;;;;;;4987199;28;20197;-80
2023/05/30 06:23:21;;;;;;;8.40;4.80;;;18.70;99.90;;;;;;4985878;28;20288;-80
2023/05/30 06:25:48;;;;;;;6.30;4.60;;;18.80;99.90;;;;;;4987554;28;20592;-81
2023/05/30 06:28:14;;;;;;;5.53;4.53;;;18.90;99.90;;;;;;4990574;28;20212;-81
2023/05/30 06:30:41;;;;;;;6.83;4.40;;;19.00;99.90;;;;;;4993601;28;20225;-81
2023/05/30 06:33:09;;;;;;;7.37;4.53;;;19.00;99.90;;;;;;4993516;28;20228;-80
2023/05/30 06:35:36;;;;;;;7.80;5.13;;;19.10;99.90;;;;;;4993935;28;20194;-82
2023/05/30 06:38:03;;;;;;;7.47;4.67;;;19.00;99.90;;;;;;4986816;28;20209;-80
2023/05/30 06:40:30;;;;;;;8.10;5.10;;;19.10;99.90;;;;;;4992769;28;20631;-83
2023/05/30 06:42:57;;;;;;;7.17;4.60;;;19.00;99.90;;;;;;4992633;28;20221;-81
2023/05/30 06:45:24;;;;;;;6.43;4.50;;;19.00;99.90;;;;;;4992288;28;20216;-83
2023/05/30 06:47:51;;;;;;;7.27;4.60;;;19.20;99.90;;;;;;4995240;28;20255;-82
2023/05/30 06:50:19;;;;;;;6.63;4.82;;;19.20;99.90;;;;;;4993187;28;20973;-82
2023/05/30 06:52:46;;;;;;;7.43;4.13;;;19.30;99.90;;;;;;4994121;28;20764;-82
2023/05/30 06:55:14;;;;;;;8.02;4.85;;;19.60;99.90;;;;;;4998319;28;20440;-82
2023/05/30 06:57:41;;;;;;;10.20;5.00;;;19.80;99.90;;;;;;4992958;28;20671;-79
2023/05/30 07:00:12;;;;;;;8.73;4.60;;;19.50;99.90;;;;;;4992503;28;20672;-81
2023/05/30 07:02:39;;;;;;;7.63;4.47;;;19.40;99.90;;;;;;4994538;28;20233;-82
2023/05/30 07:05:06;;;;;;;9.13;4.27;;;19.60;99.90;;;;;;4994946;28;20300;-78
2023/05/30 07:07:35;;;;;;;7.57;4.50;;;19.40;99.90;;;;;;4995301;28;20201;-78
2023/05/30 07:10:01;;;;;;;9.30;5.00;;;19.50;99.90;;;;;;4998317;28;20197;-78
2023/05/30 07:12:28;;;;;;;8.30;4.87;;;19.40;99.90;;;;;;4996952;28;20224;-78
2023/05/30 07:14:55;;;;;;;7.20;4.67;;;19.10;99.90;;;;;;4997559;28;20223;-78
2023/05/30 07:17:22;;;;;;;7.00;4.60;;;19.00;99.90;;;;;;4997347;28;20668;-78
2023/05/30 07:19:49;;;;;;;15.47;5.30;;;19.00;99.90;;;;;;4996436;28;20826;-78
2023/05/30 07:22:15;;;;;;;8.33;4.77;;;19.30;99.90;;;;;;4997708;28;20209;-78
2023/05/30 07:24:44;;;;;;;7.27;4.73;;;19.30;99.90;;;;;;4999177;28;20221;-79
2023/05/30 07:27:11;;;;;;;7.63;4.90;;;19.40;99.90;;;;;;4995450;28;20748;-81
2023/05/30 07:29:38;;;;;;;7.10;4.73;;;19.40;99.90;;;;;;4992396;28;20205;-82
2023/05/30 07:32:05;;;;;;;6.35;4.30;;;19.80;99.90;;;;;;4992984;28;20456;-80
2023/05/30 07:34:32;;;;;;;10.27;5.07;;;20.10;99.90;;;;;;4987543;28;20217;-82
2023/05/30 07:36:58;;;;;;;7.72;5.07;;;20.00;99.90;;;;;;4992628;28;20551;-81
2023/05/30 07:39:25;;;;;;;11.63;5.43;;;20.10;99.90;;;;;;4992710;28;20271;-79
2023/05/30 07:41:53;;;;;;;6.27;5.40;;;20.20;99.90;;;;;;4993220;28;20632;-76
2023/05/30 07:44:21;;;;;;;7.83;4.63;;;20.80;99.90;;;;;;4995599;28;20539;-77
2023/05/30 07:46:48;;;;;;;12.37;6.07;;;21.10;99.90;;;;;;4995636;28;20212;-77
2023/05/30 07:49:15;;;;;;;8.07;5.03;;;21.40;99.90;;;;;;4996508;28;20280;-77
2023/05/30 07:51:44;;;;;;;7.43;5.80;;;21.30;99.90;;;;;;4991842;28;20255;-76
2023/05/30 07:54:10;;;;;;;7.33;6.17;;;21.60;99.90;;;;;;4996953;28;20231;-77
2023/05/30 07:56:37;;;;;;;7.07;6.30;;;21.50;99.90;;;;;;4996881;28;20204;-77
2023/05/30 07:59:06;;;;;;;8.10;4.63;;;21.90;99.90;;;;;;4998929;28;20201;-81
2023/05/30 08:01:33;;;;;;;6.87;4.13;;;22.10;99.90;;;;;;4999021;28;20289;-78
2023/05/30 08:04:00;;;;;;;6.77;6.07;;;22.20;99.90;;;;;;4998890;28;20225;-81
2023/05/30 08:06:27;;;;;;;10.03;4.43;;;22.50;99.90;;;;;;4997022;28;20197;-81
2023/05/30 08:08:54;;;;;;;7.13;4.73;;;22.60;99.90;;;;;;4992955;28;20226;-80
2023/05/30 08:11:21;;;;;;;6.37;4.53;;;22.50;99.90;;;;;;4996851;28;20232;-81
2023/05/30 08:13:48;;;;;;;5.80;3.93;;;22.50;99.90;;;;;;4993839;28;20276;-81
2023/05/30 08:16:17;;;;;;;7.87;5.30;;;22.70;99.90;;;;;;4995922;28;20747;-80
2023/05/30 08:18:45;;;;;;;7.80;4.60;;;22.50;99.90;;;;;;4997295;28;20201;-80
2023/05/30 08:21:13;;;;;;;9.33;4.67;;;22.70;99.90;;;;;;4996666;28;20205;-80
2023/05/30 08:23:39;;;;;;;6.80;4.53;;;22.50;99.90;;;;;;4997696;28;20232;-81
2023/05/30 08:26:08;;;;;;;7.63;4.53;;;22.40;99.90;;;;;;4993443;28;20292;-80
2023/05/30 08:28:36;;;;;;;8.03;4.50;;;22.30;99.90;;;;;;4998389;28;20648;-80
2023/05/30 08:31:03;;;;;;;7.47;4.53;;;22.70;99.90;;;;;;4998939;28;20197;-80
2023/05/30 08:33:32;;;;;;;10.80;4.60;;;22.80;99.90;;;;;;4997986;28;20528;-80
2023/05/30 08:36:10;;;;;;;8.27;5.13;;;23.10;99.90;;;;;;4996976;28;20547;-78
2023/05/30 08:38:37;;;;;;;7.33;4.90;;;23.20;99.90;;;;;;4990376;28;20251;-80
2023/05/30 08:41:04;;;;;;;7.90;4.47;;;22.90;99.90;;;;;;4995529;28;20264;-80
2023/05/30 08:43:31;;;;;;;5.73;4.20;;;22.30;99.90;;;;;;4988067;28;20217;-80
2023/05/30 08:45:58;;;;;;;7.07;4.00;;;22.10;99.90;;;;;;4996958;28;20205;-80
2023/05/30 08:48:25;;;;;;;5.93;4.27;;;22.50;99.90;;;;;;4996505;28;20637;-80
2023/05/30 08:50:54;;;;;;;6.17;4.30;;;23.10;99.90;;;;;;4994776;28;20292;-80
2023/05/30 08:53:26;;;;;;;5.90;4.50;;;23.30;99.90;;;;;;4995349;28;20707;-81
2023/05/30 08:55:59;;;;;;;6.43;4.83;;;23.80;99.90;;;;;;4995958;28;20198;-81
2023/05/30 08:58:30;;;;;;;6.07;4.32;;;23.80;99.90;;;;;;4993285;28;20535;-81
2023/05/30 09:00:58;;;;;;;7.15;5.38;;;23.90;99.90;;;;;;4995984;28;20436;-80
2023/05/30 09:03:27;;;;;;;8.17;4.50;;;23.10;99.90;;;;;;5000175;28;20225;-81
2023/05/30 09:05:57;;;;;;;8.90;4.70;;;23.30;99.90;;;;;;4995447;28;20212;-80
2023/05/30 09:08:25;;;;;;;6.53;4.33;;;23.40;99.90;;;;;;5001983;28;20197;-80
2023/05/30 09:10:52;;;;;;;6.27;4.47;;;23.40;99.90;;;;;;4994495;28;20625;-80
2023/05/30 09:13:20;;;;;;;7.03;4.50;;;23.80;99.90;;;;;;4988311;28;20244;-80
2023/05/30 09:15:47;;;;;;;6.50;4.70;;;23.90;99.90;;;;;;4994503;28;20209;-80
2023/05/30 09:18:16;;;;;;;6.10;3.90;;;23.50;99.90;;;;;;4989854;28;20209;-80
2023/05/30 09:20:43;;;;;;;7.27;4.40;;;23.80;99.90;;;;;;5002457;28;20216;-80
2023/05/30 09:23:12;;;;;;;7.40;4.87;;;24.30;99.90;;;;;;4994288;28;20233;-80
2023/05/30 09:25:43;;;;;;;7.13;4.33;;;24.70;99.90;;;;;;4985712;28;20212;-80
2023/05/30 09:28:10;;;;;;;5.90;5.23;;;24.40;99.90;;;;;;4999239;28;20731;-80
2023/05/30 09:30:53;;;;;;;8.83;5.23;;;24.10;99.90;;;;;;4987796;28;20260;-80
2023/05/30 09:33:20;;;;;;;5.73;4.33;;;24.30;99.90;;;;;;4993727;28;20229;-80
2023/05/30 09:35:51;;;;;;;6.70;4.83;;;24.40;99.90;;;;;;4993915;28;20197;-81
2023/05/30 09:38:22;;;;;;;6.77;4.30;;;24.50;99.90;;;;;;4995090;28;20197;-80
2023/05/30 09:40:57;;;;;;;5.43;4.20;;;24.50;99.90;;;;;;4989511;28;20676;-80
2023/05/30 09:43:34;;;;;;;5.87;4.27;;;24.80;99.90;;;;;;4986424;28;20228;-80
2023/05/30 09:46:03;;;;;;;7.03;4.33;;;25.10;99.90;;;;;;4991179;28;20208;-80
2023/05/30 09:48:30;;;;;;;6.67;4.77;;;25.10;99.90;;;;;;4991961;28;20209;-81
2023/05/30 09:51:00;;;;;;;6.60;4.37;;;24.70;99.90;;;;;;4987126;28;20236;-80
2023/05/30 09:53:30;;;;;;;7.33;6.60;;;24.50;99.90;;;;;;4993109;28;20241;-80
2023/05/30 09:55:57;;;;;;;7.37;6.67;;;24.60;99.90;;;;;;4988850;28;20683;-81
2023/05/30 09:58:24;;;;;;;8.90;8.00;;;24.60;99.90;;;;;;4995137;28;20201;-81
2023/05/30 10:00:52;;;;;;;6.27;4.70;;;25.10;99.90;;;;;;4988681;28;20720;-80
2023/05/30 10:03:20;;;;;;;7.63;4.37;;;25.00;99.90;;;;;;4991806;28;20589;-80
2023/05/30 10:05:48;;;;;;;5.70;4.20;;;24.90;99.90;;;;;;4993610;28;20233;-80
2023/05/30 10:08:16;;;;;;;6.60;6.00;;;24.60;99.90;;;;;;4995343;28;20255;-80
2023/05/30 10:10:44;;;;;;;7.90;7.20;;;24.30;99.90;;;;;;4993970;28;20201;-80
2023/05/30 10:13:11;;;;;;;6.90;4.40;;;24.50;99.90;;;;;;4987747;28;20771;-80
2023/05/30 10:15:38;;;;;;;5.93;4.40;;;24.80;99.90;;;;;;4987727;28;20271;-80
2023/05/30 10:18:08;;;;;;;6.63;4.60;;;25.00;99.90;;;;;;4993778;28;20205;-81
2023/05/30 10:20:37;;;;;;;5.67;3.93;;;24.90;99.90;;;;;;4987757;28;20614;-81
2023/05/30 10:23:07;;;;;;;7.20;4.70;;;24.80;99.90;;;;;;4993273;28;20283;-81
2023/05/30 10:25:36;;;;;;;6.97;4.77;;;24.80;99.90;;;;;;4987004;28;20213;-81
2023/05/30 10:28:06;;;;;;;6.57;4.53;;;24.80;99.90;;;;;;4990495;28;20201;-81
2023/05/30 10:30:34;;;;;;;7.63;3.83;;;24.00;99.90;;;;;;4992272;28;20201;-81
2023/05/30 10:33:05;;;;;;;6.07;4.50;;;23.80;99.90;;;;;;4993247;28;20312;-81
2023/05/30 10:35:32;;;;;;;6.83;6.13;;;23.90;99.90;;;;;;4993005;28;20816;-80
2023/05/30 10:38:00;;;;;;;7.50;4.40;;;24.10;99.90;;;;;;4987517;28;20225;-80
2023/05/30 10:40:36;;;;;;;6.60;4.10;;;24.00;99.90;;;;;;4994158;28;20197;-80
2023/05/30 10:43:23;;;;;;;7.67;4.40;;;24.20;99.90;;;;;;4994248;28;20217;-81
2023/05/30 10:46:00;;;;;;;8.10;4.37;;;24.30;99.90;;;;;;4989532;28;20464;-81
2023/05/30 10:48:33;;;;;;;6.17;3.97;;;24.10;99.90;;;;;;4994387;28;20197;-81
2023/05/30 10:51:01;;;;;;;8.17;4.37;;;23.80;99.90;;;;;;4994723;28;20257;-81
2023/05/30 10:53:29;;;;;;;4.67;3.93;;;23.80;99.90;;;;;;4993472;28;20268;-81
2023/05/30 10:55:56;;;;;;;7.30;4.63;;;24.00;99.90;;;;;;4987324;28;20586;-80
2023/05/30 10:58:37;;;;;;;6.93;4.07;;;23.70;99.90;;;;;;4986758;28;20233;-81
2023/05/30 11:01:29;;;;;;;7.73;4.27;;;23.70;99.90;;;;;;4986523;28;20226;-81
2023/05/30 11:04:01;;;;;;;5.53;4.07;;;23.70;99.90;;;;;;4980150;28;20229;-81
2023/05/30 11:06:31;;;;;;;6.23;4.20;;;23.80;99.90;;;;;;4993328;28;20576;-81
2023/05/30 11:09:05;;;;;;;9.07;6.87;;;23.90;99.90;;;;;;4994681;28;20197;-80
2023/05/30 11:11:40;;;;;;;8.30;7.50;;;23.80;99.90;;;;;;4993033;28;20624;-80
2023/05/30 11:14:10;;;;;;;9.00;7.50;;;23.70;99.90;;;;;;4990161;28;20323;-79
2023/05/30 11:16:49;;;;;;;6.90;4.30;;;23.50;99.90;;;;;;4992445;28;20231;-80
2023/05/30 11:19:18;;;;;;;7.37;6.77;;;23.20;99.90;;;;;;4993930;28;20228;-81
2023/05/30 11:21:55;;;;;;;7.77;4.10;;;23.10;99.90;;;;;;4993951;28;20205;-81
2023/05/30 11:24:22;;;;;;;7.00;4.80;;;23.20;99.90;;;;;;4992840;28;20228;-81
2023/05/30 11:27:00;;;;;;;5.93;3.80;;;23.30;99.90;;;;;;4993213;28;20273;-81
2023/05/30 11:29:36;;;;;;;5.87;4.10;;;23.20;99.90;;;;;;4992966;28;20205;-80
2023/05/30 11:32:06;;;;;;;5.77;4.23;;;23.30;99.90;;;;;;4993552;28;20558;-80
2023/05/30 11:34:33;;;;;;;5.07;3.70;;;23.50;99.90;;;;;;4992903;28;20190;-81
2023/05/30 11:37:00;;;;;;;6.70;4.73;;;23.50;99.90;;;;;;4994698;28;20192;-81
2023/05/30 11:39:28;;;;;;;8.27;4.00;;;23.60;99.90;;;;;;4993881;28;20205;-80
2023/05/30 11:41:55;;;;;;;7.10;4.40;;;23.60;99.90;;;;;;4994183;28;20247;-81
2023/05/30 11:44:22;;;;;;;9.23;3.90;;;23.50;99.90;;;;;;4992796;28;20256;-81
2023/05/30 11:47:03;;;;;;;7.13;4.17;;;23.30;99.90;;;;;;4988375;28;20214;-81
2023/05/30 11:49:30;;;;;;;7.40;5.17;;;23.20;99.90;;;;;;4994308;28;20205;-81
2023/05/30 11:51:57;;;;;;;6.87;4.20;;;23.20;99.90;;;;;;4995957;28;20251;-81
2023/05/30 11:54:25;;;;;;;5.23;4.03;;;23.40;99.90;;;;;;4994037;28;20640;-81
2023/05/30 11:56:53;;;;;;;9.20;7.60;;;23.30;99.90;;;;;;4993418;28;20233;-81
2023/05/30 11:59:20;;;;;;;4.03;3.63;;;23.30;99.90;;;;;;4993914;28;20262;-80
2023/05/30 12:01:51;;;;;;;6.23;3.87;;;23.30;99.90;;;;;;4994052;28;20208;-81
2023/05/30 12:04:26;;;;;;;7.30;4.30;;;23.30;99.90;;;;;;4994224;28;20311;-81
2023/05/30 12:06:53;;;;;;;7.23;3.70;;;23.20;99.90;;;;;;4989871;28;20223;-80
2023/05/30 12:09:21;;;;;;;7.53;3.57;;;23.20;99.90;;;;;;4992415;28;20297;-81
2023/05/30 12:12:06;;;;;;;4.70;3.80;;;23.50;99.90;;;;;;4996638;28;20197;-81
2023/05/30 12:14:41;;;;;;;5.40;3.83;;;23.50;99.90;;;;;;4994013;28;20257;-81
2023/05/30 12:17:12;;;;;;;7.27;4.13;;;23.50;99.80;;;;;;5000340;28;20197;-80
2023/05/30 12:19:42;;;;;;;5.13;3.90;;;23.50;99.90;;;;;;4985900;28;20193;-81
2023/05/30 12:22:09;;;;;;;6.33;3.60;;;23.50;99.90;;;;;;4993161;28;20288;-81
2023/05/30 12:24:37;;;;;;;6.37;3.60;;;23.70;99.90;;;;;;4995374;28;20260;-80
2023/05/30 12:27:05;;;;;;;6.00;4.10;;;23.80;99.90;;;;;;4995503;28;20508;-81
2023/05/30 12:29:33;;;;;;;7.10;4.03;;;23.60;99.90;;;;;;4996303;28;20224;-81
2023/05/30 12:32:01;;;;;;;4.33;3.60;;;23.50;99.90;;;;;;4998390;28;20193;-80
2023/05/30 12:34:37;;;;;;;5.07;3.83;;;23.60;99.90;;;;;;4996318;28;20650;-81
2023/05/30 12:37:07;;;;;;;5.37;4.23;;;23.60;99.80;;;;;;4996010;28;20212;-81
2023/05/30 12:39:34;;;;;;;7.13;3.60;;;23.40;99.90;;;;;;4996530;28;20201;-80
2023/05/30 12:42:07;;;;;;;6.53;3.80;;;23.40;99.40;;;;;;4997549;28;20220;-81
2023/05/30 12:44:53;;;;;;;6.53;4.30;;;23.50;99.90;;;;;;4995584;28;20227;-80
2023/05/30 12:47:21;;;;;;;5.27;3.90;;;23.40;99.80;;;;;;4996673;28;20200;-81
2023/05/30 12:49:48;;;;;;;5.40;4.03;;;23.30;99.90;;;;;;4996013;28;20671;-80
2023/05/30 12:52:19;;;;;;;6.37;4.30;;;23.40;99.90;;;;;;4988568;28;20632;-80
2023/05/30 12:54:47;;;;;;;5.67;4.03;;;23.50;99.90;;;;;;4995536;28;20193;-81